Latest Weather Observations for Glen Innes Airport

IDN60801

Issued at 11:32 am EST Tuesday 28 July 2015 (issued every 30 minutes, with the page automatically refreshed every 10 minutes)

About weather observations | Map of weather stations | Latest weather observations for NSW | Other Formats
Station Details ID: 056243 Name: GLEN INNES AIRPORT AWS Lat: -29.68 Lon: 151.69 Height: 1044.3 m
Data from the previous 72 hours. | See also: Recent months for locations in New South Wales
Date/Time
EST
Temp
°C
App
Temp
°C
Dew
Point
Rel
Hum
%
Delta-T
°C
Wind Press
QNH
hPa
Press
MSL
hPa
Rain
since 9 am
mm
Dir
 
Spd
km/h
Gust
km/h
Spd
kts
Gust
kts
28/11:30am 9.4 4.9 -6.4 32 5.8 E 9 15 5 8 1030.5 1031.3 0.0
28/11:00am 8.6 3.7 -3.3 43 4.6 SE 13 19 7 10 1030.9 1031.7 0.0
28/10:30am 7.7 1.6 -3.8 44 4.4 SE 19 24 10 13 1031.2 1032.1 0.0
28/10:00am 6.2 0.6 -2.7 53 3.4 SE 17 22 9 12 1031.3 1032.2 0.0
28/09:30am 4.5 0.1 -2.4 61 2.6 SE 11 15 6 8 1031.4 1032.3 0.0
28/09:00am 2.9 -1.5 -2.6 67 2.0 ESE 11 13 6 7 1031.2 1032.1 0.0
28/08:30am 1.2 -3.6 -2.5 76 1.4 SE 13 19 7 10 1030.7 1031.5 0.0
28/08:00am -0.1 -4.6 -3.0 81 1.0 SE 11 13 6 7 1030.2 1031.0 0.0
28/07:30am -2.5 -8.7 -4.5 86 0.6 SSE 19 20 10 11 1029.9 1030.7 0.0
28/07:00am -5.5 -10.9 -7.9 83 0.5 SE 13 17 7 9 1029.9 1030.7 0.0
28/06:30am -4.6 -9.4 -6.4 87 0.4 ESE 11 15 6 8 1029.6 1030.4 0.0
28/06:00am -4.5 -8.0 -6.6 85 0.5 ESE 4 11 2 6 1029.2 1030.0 0.0
28/05:30am -4.7 -8.8 -6.7 86 0.4 E 7 9 4 5 1028.9 1029.7 0.0
28/05:00am -4.1 -8.6 -6.5 83 0.6 SE 9 11 5 6 1028.5 1029.2 0.0
28/04:30am -3.8 -8.2 -5.9 85 0.5 ESE 9 13 5 7 1028.2 1029.0 0.0
28/04:00am -4.7 -8.8 -6.4 88 0.3 ESE 7 9 4 5 1028.1 1028.9 0.0
28/03:30am -4.5 -8.6 -6.8 84 0.5 SE 7 9 4 5 1028.1 1028.9 0.0
28/03:00am -3.7 -8.1 -5.7 86 0.5 ESE 9 11 5 6 1028.0 1028.8 0.0
28/02:30am -3.0 -8.1 -5.2 85 0.6 SE 13 15 7 8 1027.9 1028.7 0.0
28/02:00am -2.4 -8.1 -4.1 88 0.5 ESE 17 20 9 11 1028.0 1028.8 0.0
28/01:30am -3.0 -8.0 -4.7 88 0.4 E 13 13 7 7 1028.1 1028.9 0.0
28/01:00am -3.3 -7.6 -4.8 89 0.3 E 9 13 5 7 1028.1 1028.9 0.0
28/12:30am -2.8 -7.0 -3.9 92 0.2 E 9 11 5 6 1028.1 1028.9 0.0
28/12:00am -2.6 -6.5 -4.6 86 0.5 ENE 7 9 4 5 1028.1 1028.9 0.0
 
Date/Time
EST
Temp
°C
App
Temp
°C
Dew
Point
Rel
Hum
%
Delta-T
°C
Wind Press
QNH
hPa
Press
MSL
hPa
Rain
since 9 am
mm
Dir
 
Spd
km/h
Gust
km/h
Spd
kts
Gust
kts
27/11:30pm -2.2 -5.9 -4.4 85 0.6 SE 6 9 3 5 1028.2 1029.0 0.0
27/11:00pm -0.5 -4.2 -2.5 86 0.7 S 7 13 4 7 1028.1 1028.9 0.0
27/10:30pm -0.2 -5.0 -2.6 84 0.9 S 13 17 7 9 1028.5 1029.2 0.0
27/10:00pm 0.6 -4.5 -1.9 83 1.0 SSW 15 17 8 9 1028.5 1029.2 0.0
27/09:30pm 0.8 -4.0 -2.2 80 1.2 SSW 13 15 7 8 1028.6 1029.3 0.0
27/09:00pm 0.4 -4.4 -2.6 80 1.1 S 13 15 7 8 1028.6 1029.3 0.0
27/08:30pm -0.1 -4.6 -3.0 81 1.0 S 11 17 6 9 1028.2 1029.0 0.0
27/08:00pm 0.4 -2.0 -2.8 79 1.2 CALM 0 0 0 0 1028.0 1028.8 0.0
27/07:30pm 1.5 -2.6 -3.0 72 1.7 SW 9 11 5 6 1027.4 1028.1 0.0
27/07:00pm 2.1 -2.7 -2.8 70 1.8 SW 13 15 7 8 1026.9 1027.6 0.0
27/06:30pm 2.6 -2.6 -2.9 67 2.0 WSW 15 20 8 11 1026.6 1027.3 0.0
27/06:00pm 4.0 -0.5 -3.5 58 2.8 WSW 11 17 6 9 1026.2 1027.0 0.0
27/05:30pm 4.6 0.1 -3.4 56 3.0 WNW 11 19 6 10 1025.8 1026.5 0.0
27/05:00pm 6.4 0.4 -2.7 52 3.5 W 19 26 10 14 1025.3 1025.9 0.0
27/04:30pm 7.6 1.7 -1.9 51 3.8 WSW 19 26 10 14 1025.0 1025.7 0.0
27/04:00pm 8.5 1.8 -1.3 50 4.0 WSW 24 30 13 16 1024.7 1025.4 0.0
27/03:30pm 9.0 2.2 -1.7 47 4.4 WSW 24 32 13 17 1024.6 1025.3 0.0
27/03:00pm 9.4 2.3 -1.0 48 4.3 WSW 26 33 14 18 1024.5 1025.1 0.0
27/02:30pm 9.8 2.9 -0.1 50 4.2 WSW 26 35 14 19 1024.4 1025.0 0.0
27/02:00pm 10.4 4.1 1.5 54 3.9 WSW 24 33 13 18 1024.3 1024.9 0.0
27/01:30pm 9.8 3.6 -0.1 50 4.2 WSW 22 30 12 16 1024.5 1025.1 0.0
27/01:00pm 9.5 3.7 0.1 52 4.0 WSW 20 26 11 14 1024.7 1025.4 0.0
27/12:30pm 10.0 4.4 1.1 54 3.9 W 20 30 11 16 1025.1 1025.8 0.0
27/12:00pm 9.4 3.9 0.3 53 3.9 W 19 26 10 14 1025.5 1026.2 0.0
27/11:30am 9.4 3.6 -1.3 47 4.4 WSW 19 26 10 14 1025.8 1026.5 0.0
27/11:00am 8.7 3.1 1.4 60 3.2 W 20 26 11 14 1025.9 1026.6 0.0
27/10:30am 8.5 2.8 2.9 68 2.5 WSW 22 30 12 16 1025.9 1026.6 0.0
27/10:00am 7.7 1.5 2.4 69 2.3 W 24 32 13 17 1026.1 1026.8 0.0
27/09:30am 7.1 1.1 3.3 77 1.7 W 24 30 13 16 1025.9 1026.6 0.0
27/09:00am 6.4 0.3 2.7 77 1.6 WSW 24 35 13 19 1025.6 1026.3 0.0
27/08:30am 5.9 0.6 3.1 82 1.2 WSW 20 26 11 14 1025.4 1026.0 0.0
27/08:00am 5.2 0.5 3.2 87 0.9 WSW 17 20 9 11 1025.4 1026.0 0.0
27/07:30am 4.3 -0.1 2.8 90 0.7 WSW 15 20 8 11 1024.9 1025.6 0.0
27/07:00am 3.5 -1.4 2.2 91 0.5 WSW 17 22 9 12 1024.7 1025.4 0.0
27/06:30am 3.3 -1.5 2.4 94 0.4 W 17 19 9 10 1024.6 1025.3 0.0
27/06:00am 2.8 -1.8 1.8 93 0.4 WSW 15 17 8 9 1024.1 1024.8 0.0
27/05:30am 3.5 -0.6 2.3 92 0.5 WSW 13 17 7 9 1023.9 1024.6 0.0
27/05:08am 4.1 0.1 2.8 91 0.6 WSW 13 17 7 9 1023.9 1024.6 0.0
27/05:00am 4.3 0.3 3.0 91 0.6 WSW 13 17 7 9 1023.8 1024.5 0.0
27/04:30am 3.9 1.1 3.0 94 0.4 WSW 7 13 4 7 1023.8 1024.5 0.0
27/04:21am 3.7 0.8 2.8 94 0.4 W 7 9 4 5 1023.7 1024.3 0.0
27/04:00am 3.5 0.8 2.5 93 0.4 W 6 9 3 5 1023.6 1024.2 0.0
27/03:30am 3.4 0.6 2.1 91 0.6 W 6 7 3 4 1023.3 1023.9 0.0
27/03:00am 4.2 1.6 3.0 92 0.5 NW 6 7 3 4 1023.3 1023.9 0.0
27/02:30am 4.0 1.3 2.4 89 0.7 WNW 6 9 3 5 1023.0 1023.7 0.0
27/02:00am 4.3 1.0 2.5 88 0.8 WSW 9 13 5 7 1023.0 1023.7 0.0
27/01:30am 4.8 0.8 3.1 89 0.7 WSW 13 17 7 9 1023.1 1023.8 0.0
27/01:00am 5.3 1.0 3.5 88 0.8 WSW 15 20 8 11 1023.3 1023.9 0.0
27/12:30am 5.4 0.7 3.3 86 0.9 WSW 17 22 9 12 1023.1 1023.8 0.0
27/12:00am 5.7 0.7 3.5 86 1.0 WSW 19 24 10 13 1023.5 1024.1 0.0
 
Date/Time
EST
Temp
°C
App
Temp
°C
Dew
Point
Rel
Hum
%
Delta-T
°C
Wind Press
QNH
hPa
Press
MSL
hPa
Rain
since 9 am
mm
Dir
 
Spd
km/h
Gust
km/h
Spd
kts
Gust
kts
26/11:30pm 6.2 1.1 3.9 85 1.0 WSW 20 26 11 14 1023.3 1023.9 0.0
26/11:00pm 6.4 1.3 3.9 84 1.1 WSW 20 28 11 15 1023.3 1023.9 0.0
26/10:30pm 5.7 1.1 3.9 88 0.8 W 17 20 9 11 1023.3 1023.9 0.0
26/10:00pm 5.8 1.2 3.6 86 1.0 W 17 20 9 11 1023.5 1024.1 0.0
26/09:30pm 6.5 1.4 4.0 84 1.1 W 20 26 11 14 1023.4 1024.0 0.0
26/09:00pm 6.4 1.3 4.1 85 1.0 W 20 24 11 13 1023.5 1024.1 0.0
26/08:30pm 6.5 1.4 4.0 84 1.1 W 20 26 11 14 1023.3 1023.9 0.0
26/08:00pm 6.8 1.9 4.3 84 1.1 WNW 19 22 10 12 1022.9 1023.6 0.0
26/07:30pm 7.2 2.3 4.9 85 1.1 W 20 26 11 14 1022.7 1023.3 0.0
26/07:00pm 7.0 2.2 4.8 86 1.0 W 19 24 10 13 1022.6 1023.2 0.0
26/06:30pm 8.0 3.1 4.9 81 1.5 WNW 20 28 11 15 1022.0 1022.6 0.0
26/06:00pm 8.3 3.4 5.1 80 1.5 WNW 20 24 11 13 1021.8 1022.4 0.0
26/05:30pm 9.2 3.4 4.6 73 2.2 WNW 24 28 13 15 1021.3 1021.9 0.0
26/05:00pm 10.0 3.7 4.0 66 2.8 WNW 26 33 14 18 1020.8 1021.4 0.0
26/04:30pm 10.9 4.3 4.1 63 3.2 W 28 37 15 20 1020.7 1021.3 0.0
26/04:00pm 11.3 5.1 6.0 70 2.6 W 28 37 15 20 1020.6 1021.2 0.0
26/03:30pm 11.7 5.5 6.0 68 2.8 W 28 39 15 21 1020.5 1021.1 0.0
26/03:00pm 11.7 4.7 6.0 68 2.8 W 32 39 17 21 1020.4 1020.9 0.0
26/02:30pm 11.3 5.7 7.2 76 2.1 W 26 35 14 19 1020.3 1020.8 0.0
26/02:00pm 11.2 5.9 6.9 75 2.2 W 24 33 13 18 1020.2 1020.7 0.0
26/01:30pm 11.6 5.4 7.9 78 1.9 W 30 41 16 22 1020.5 1021.1 0.0
26/01:23pm 11.4 5.5 7.7 78 1.9 W 28 41 15 22 1020.6 1021.2 0.0
26/01:09pm 11.4 5.7 8.3 81 1.6 W 28 37 15 20 1020.7 1021.3 0.0
26/01:00pm 11.8 5.4 8.6 81 1.7 W 32 41 17 22 1020.7 1021.3 0.0
26/12:56pm 11.5 5.0 8.2 80 1.7 W 32 41 17 22 1020.8 1021.4 0.0
26/12:30pm 12.7 6.3 9.2 79 1.9 W 33 41 18 22 1020.8 1021.4 0.0
26/12:00pm 13.4 7.7 9.8 79 2.0 WNW 30 39 16 21 1020.7 1021.3 0.0
26/11:51am 12.6 7.1 9.1 79 1.9 WNW 28 33 15 18 1020.8 1021.4 0.0
26/11:45am 12.1 5.8 9.1 82 1.6 WNW 32 35 17 19 1021.0 1021.6 0.0
26/11:30am 11.9 6.8 9.3 84 1.4 WNW 26 33 14 18 1021.3 1021.9 0.0
26/11:00am 11.9 6.8 9.3 84 1.4 WNW 26 33 14 18 1022.0 1022.6 0.0
26/10:30am 11.3 6.5 9.0 86 1.2 WNW 24 32 13 17 1022.3 1022.9 0.0
26/10:00am 11.0 7.3 9.4 90 0.8 WNW 19 26 10 14 1022.3 1022.9 0.0
26/09:30am 10.2 6.2 9.0 92 0.6 W 20 24 11 13 1022.8 1023.4 0.0
26/09:00am 9.9 6.5 9.1 95 0.4 W 17 24 9 13 1023.1 1023.8 0.0
26/08:30am 9.1 5.2 8.5 96 0.3 WNW 19 24 10 13 1023.3 1023.9 0.0
26/08:17am 9.0 5.1 8.5 97 0.3 W 19 20 10 11 1023.0 1023.7 0.0
26/08:00am 8.9 5.7 8.5 97 0.2 WNW 15 20 8 11 1022.8 1023.4 0.0
26/07:58am 8.8 5.6 8.4 97 0.2 WNW 15 20 8 11 1022.7 1023.3 0.0
26/07:36am 8.7 5.1 8.3 97 0.2 WNW 17 19 9 10 1022.7 1023.3 0.0
26/07:30am 8.7 5.1 8.3 97 0.2 WNW 17 20 9 11 1022.5 1023.1 0.0
26/07:26am 8.7 5.1 8.3 97 0.2 W 17 20 9 11 1022.6 1023.2 0.0
26/07:22am 8.6 5.0 8.2 97 0.2 W 17 20 9 11 1022.7 1023.3 0.0
26/07:06am 8.5 5.6 8.1 97 0.2 WNW 13 19 7 10 1022.2 1022.8 0.0
26/07:00am 8.5 5.6 8.1 97 0.2 WNW 13 17 7 9 1022.0 1022.6 0.0
26/06:50am 8.4 5.4 7.8 96 0.3 WNW 13 17 7 9 1021.9 1022.5 0.0
26/06:45am 8.5 5.9 7.9 96 0.3 WNW 11 15 6 8 1021.7 1022.3 0.0
26/06:30am 8.5 5.5 7.9 96 0.3 WNW 13 15 7 8 1022.2 1022.8 0.0
26/06:00am 8.5 5.5 7.9 96 0.3 WNW 13 15 7 8 1022.4 1023.0 0.0
26/05:30am 8.5 5.5 7.9 96 0.3 WNW 13 15 7 8 1021.9 1022.5 0.0
26/05:00am 8.6 5.3 8.0 96 0.3 W 15 19 8 10 1022.0 1022.6 0.0
26/04:30am 8.7 5.7 7.9 95 0.4 W 13 17 7 9 1021.8 1022.4 0.0
26/04:00am 8.6 6.0 7.8 95 0.4 W 11 15 6 8 1021.4 1022.0 0.0
26/03:30am 8.7 5.7 7.9 95 0.4 WNW 13 17 7 9 1022.0 1022.6 0.0
26/03:00am 8.7 6.1 7.9 95 0.4 W 11 19 6 10 1022.4 1023.0 0.0
26/02:30am 8.9 6.0 8.1 95 0.4 W 13 17 7 9 1022.4 1023.0 0.0
26/02:00am 8.8 5.5 8.2 96 0.3 W 15 19 8 10 1022.7 1023.3 0.0
26/01:30am 9.2 5.7 8.7 97 0.3 WNW 17 20 9 11 1023.4 1024.0 0.0
26/01:00am 9.2 6.1 8.7 97 0.3 WNW 15 20 8 11 1022.8 1023.4 0.0
26/12:55am 9.1 5.9 8.6 97 0.3 WNW 15 20 8 11 1022.7 1023.3 0.0
26/12:38am 9.2 5.3 8.7 97 0.3 WNW 19 24 10 13 1022.9 1023.6 0.0
26/12:30am 9.2 5.7 8.7 97 0.3 W 17 20 9 11 1022.6 1023.2 0.0
26/12:26am 9.1 5.6 8.6 97 0.3 W 17 22 9 12 1022.7 1023.3 0.0
26/12:07am 9.1 6.7 8.6 97 0.3 WNW 11 17 6 9 1022.6 1023.2 0.0
26/12:00am 9.1 6.3 8.6 97 0.3 WNW 13 17 7 9 1022.3 1022.9 0.0
 
Date/Time
EST
Temp
°C
App
Temp
°C
Dew
Point
Rel
Hum
%
Delta-T
°C
Wind Press
QNH
hPa
Press
MSL
hPa
Rain
since 9 am
mm
Dir
 
Spd
km/h
Gust
km/h
Spd
kts
Gust
kts
25/11:30pm 9.0 5.8 8.5 97 0.3 WNW 15 17 8 9 1022.7 1023.3 0.0
25/11:00pm 8.9 6.1 8.5 97 0.2 WNW 13 15 7 8 1023.1 1023.8 0.0
25/10:59pm 8.9 6.1 8.5 97 0.2 WNW 13 15 7 8 1023.3 1023.9 0.0
25/10:52pm 8.9 6.1 8.5 97 0.2 WNW 13 19 7 10 1023.4 1024.0 0.0
25/10:30pm 8.8 5.2 8.4 97 0.2 WNW 17 20 9 11 1023.8 1024.5 0.0
25/10:27pm 8.8 5.6 8.4 97 0.2 WNW 15 20 8 11 1023.8 1024.5 0.0
25/10:14pm 8.4 4.7 8.0 97 0.2 WNW 17 20 9 11 1023.7 1024.3 0.0
25/10:00pm 8.4 4.7 7.8 96 0.3 WNW 17 20 9 11 1023.6 1024.2 0.0
25/09:40pm 8.7 5.0 8.1 96 0.3 WNW 17 22 9 12 1023.3 1023.9 0.0
25/09:30pm 8.8 4.6 8.2 96 0.3 WNW 20 26 11 14 1023.5 1024.1 0.0
25/09:27pm 8.9 4.7 8.3 96 0.3 WNW 20 26 11 14 1023.5 1024.1 0.0
25/09:25pm 8.9 4.3 8.3 96 0.3 WNW 22 26 12 14 1023.5 1024.1 0.0
25/09:00pm 9.1 5.2 8.6 97 0.3 WNW 19 24 10 13 1023.1 1023.8 0.0
25/08:41pm 9.1 5.2 8.5 96 0.3 NW 19 24 10 13 1023.4 1024.0 0.0
25/08:30pm 9.1 5.9 8.5 96 0.3 NW 15 20 8 11 1023.3 1023.9 0.0
25/08:00pm 8.7 6.2 8.3 97 0.2 WNW 11 15 6 8 1023.1 1023.8 0.0
25/07:30pm 7.5 4.3 6.8 95 0.3 NW 13 17 7 9 1023.4 1024.0 0.0
25/07:10pm 7.6 4.8 6.9 95 0.3 NW 11 13 6 7 1023.4 1024.0 0.0
25/07:00pm 6.9 3.8 5.7 92 0.6 NNW 11 13 6 7 1023.1 1023.8 0.0
25/06:30pm 8.6 5.6 7.5 93 0.6 NW 13 17 7 9 1022.8 1023.4 0.0
25/06:00pm 8.5 5.0 7.3 92 0.6 NW 15 19 8 10 1022.6 1023.2 0.0
25/05:30pm 8.6 5.1 7.1 90 0.7 WNW 15 17 8 9 1022.0 1022.6 0.0
25/05:00pm 10.2 6.8 7.8 85 1.2 WNW 15 19 8 10 1021.7 1022.3 0.0
25/04:30pm 10.9 6.6 8.0 82 1.5 WNW 20 24 11 13 1021.7 1022.3 0.0
25/04:00pm 12.5 6.5 8.6 77 2.1 WNW 30 35 16 19 1021.7 1022.3 0.0
25/03:30pm 12.0 6.2 8.1 77 2.0 W 28 37 15 20 1021.4 1022.0 0.0
25/03:00pm 12.9 7.2 8.4 74 2.4 WNW 28 35 15 19 1021.0 1021.6 0.0
25/02:30pm 12.1 6.5 8.6 79 1.8 W 28 37 15 20 1021.0 1021.6 0.0
25/02:00pm 12.0 5.5 8.1 77 2.0 WNW 32 44 17 24 1020.9 1021.5 0.0
25/01:30pm 13.0 7.9 9.1 77 2.1 W 26 32 14 17 1020.9 1021.5 0.0
25/01:00pm 11.7 6.1 8.7 82 1.6 W 28 37 15 20 1021.4 1022.0 0.0
25/12:30pm 11.6 6.4 9.0 84 1.4 W 26 32 14 17 1021.5 1022.1 0.0
25/12:17pm 11.6 6.3 8.5 81 1.6 W 26 35 14 19 1021.5 1022.1 0.0
25/12:00pm 11.0 6.2 8.8 86 1.2 W 24 32 13 17 1022.0 1022.6 0.0

Other Formats:

Comma delimited format used in spreadsheet applications
http://www.bom.gov.au/fwo/IDN60801/IDN60801.94588.axf

JavaScript Object Notation format (JSON) in row-major order
http://www.bom.gov.au/fwo/IDN60801/IDN60801.94588.json